sensor_id;sensor_type;location;lat;lon;timestamp;P1;durP1;ratioP1;P2;durP2;ratioP2
42600;SDS011;28229;48.856;9.088;2024-02-23T00:01:41;0.40;;;0.17;;
42600;SDS011;28229;48.856;9.088;2024-02-23T00:04:08;1.17;;;0.50;;
42600;SDS011;28229;48.856;9.088;2024-02-23T00:06:35;1.00;;;0.23;;
42600;SDS011;28229;48.856;9.088;2024-02-23T00:09:01;0.10;;;0.10;;
42600;SDS011;28229;48.856;9.088;2024-02-23T00:11:27;0.63;;;0.37;;
42600;SDS011;28229;48.856;9.088;2024-02-23T00:13:54;1.50;;;0.30;;
42600;SDS011;28229;48.856;9.088;2024-02-23T00:16:20;0.20;;;0.20;;
42600;SDS011;28229;48.856;9.088;2024-02-23T00:18:46;0.20;;;0.20;;
42600;SDS011;28229;48.856;9.088;2024-02-23T00:21:12;2.27;;;0.43;;
42600;SDS011;28229;48.856;9.088;2024-02-23T00:23:39;1.70;;;0.40;;
42600;SDS011;28229;48.856;9.088;2024-02-23T00:26:05;1.33;;;0.40;;
42600;SDS011;28229;48.856;9.088;2024-02-23T00:28:31;1.30;;;0.63;;
42600;SDS011;28229;48.856;9.088;2024-02-23T00:30:57;1.97;;;0.50;;
42600;SDS011;28229;48.856;9.088;2024-02-23T00:33:23;4.40;;;0.90;;
42600;SDS011;28229;48.856;9.088;2024-02-23T00:35:49;2.50;;;0.90;;
42600;SDS011;28229;48.856;9.088;2024-02-23T00:38:16;3.37;;;0.50;;
42600;SDS011;28229;48.856;9.088;2024-02-23T00:40:42;2.40;;;0.70;;
42600;SDS011;28229;48.856;9.088;2024-02-23T00:43:08;2.27;;;0.60;;
42600;SDS011;28229;48.856;9.088;2024-02-23T00:45:34;1.70;;;0.40;;
42600;SDS011;28229;48.856;9.088;2024-02-23T00:48:00;3.03;;;0.80;;
42600;SDS011;28229;48.856;9.088;2024-02-23T00:50:27;1.53;;;0.57;;
42600;SDS011;28229;48.856;9.088;2024-02-23T00:52:53;3.63;;;0.67;;
42600;SDS011;28229;48.856;9.088;2024-02-23T00:55:19;0.70;;;0.40;;
42600;SDS011;28229;48.856;9.088;2024-02-23T00:57:46;2.50;;;0.80;;
42600;SDS011;28229;48.856;9.088;2024-02-23T01:00:12;0.83;;;0.50;;
42600;SDS011;28229;48.856;9.088;2024-02-23T01:02:38;0.87;;;0.50;;
42600;SDS011;28229;48.856;9.088;2024-02-23T01:05:05;1.33;;;0.70;;
42600;SDS011;28229;48.856;9.088;2024-02-23T01:07:32;1.70;;;0.77;;
42600;SDS011;28229;48.856;9.088;2024-02-23T01:09:58;0.80;;;0.80;;
42600;SDS011;28229;48.856;9.088;2024-02-23T01:12:24;1.27;;;0.60;;
42600;SDS011;28229;48.856;9.088;2024-02-23T01:14:50;2.70;;;0.87;;
42600;SDS011;28229;48.856;9.088;2024-02-23T01:17:17;3.33;;;0.70;;
42600;SDS011;28229;48.856;9.088;2024-02-23T01:19:43;1.23;;;0.60;;
42600;SDS011;28229;48.856;9.088;2024-02-23T01:22:09;1.37;;;0.70;;
42600;SDS011;28229;48.856;9.088;2024-02-23T01:24:35;0.73;;;0.50;;
42600;SDS011;28229;48.856;9.088;2024-02-23T01:27:02;2.10;;;0.83;;
42600;SDS011;28229;48.856;9.088;2024-02-23T01:29:28;1.03;;;0.50;;
42600;SDS011;28229;48.856;9.088;2024-02-23T01:31:54;1.63;;;0.50;;
42600;SDS011;28229;48.856;9.088;2024-02-23T01:34:21;3.83;;;0.60;;
42600;SDS011;28229;48.856;9.088;2024-02-23T01:36:48;1.90;;;0.60;;
42600;SDS011;28229;48.856;9.088;2024-02-23T01:39:14;2.50;;;0.67;;
42600;SDS011;28229;48.856;9.088;2024-02-23T01:41:41;3.00;;;0.63;;
42600;SDS011;28229;48.856;9.088;2024-02-23T01:44:08;1.70;;;0.57;;
42600;SDS011;28229;48.856;9.088;2024-02-23T01:46:34;3.37;;;0.60;;
42600;SDS011;28229;48.856;9.088;2024-02-23T01:49:00;1.03;;;0.47;;
42600;SDS011;28229;48.856;9.088;2024-02-23T01:51:27;2.00;;;0.73;;
42600;SDS011;28229;48.856;9.088;2024-02-23T01:53:53;1.60;;;0.57;;
42600;SDS011;28229;48.856;9.088;2024-02-23T01:56:19;0.80;;;0.60;;
42600;SDS011;28229;48.856;9.088;2024-02-23T01:58:46;0.40;;;0.40;;
42600;SDS011;28229;48.856;9.088;2024-02-23T02:01:13;2.50;;;0.63;;
42600;SDS011;28229;48.856;9.088;2024-02-23T02:03:39;1.10;;;0.57;;
42600;SDS011;28229;48.856;9.088;2024-02-23T02:06:05;2.10;;;0.60;;
42600;SDS011;28229;48.856;9.088;2024-02-23T02:08:33;1.20;;;0.60;;
42600;SDS011;28229;48.856;9.088;2024-02-23T02:11:00;0.97;;;0.47;;
42600;SDS011;28229;48.856;9.088;2024-02-23T02:13:30;2.30;;;0.73;;
42600;SDS011;28229;48.856;9.088;2024-02-23T02:15:59;2.43;;;0.60;;
42600;SDS011;28229;48.856;9.088;2024-02-23T02:18:26;1.80;;;0.70;;
42600;SDS011;28229;48.856;9.088;2024-02-23T02:20:56;1.30;;;0.63;;
42600;SDS011;28229;48.856;9.088;2024-02-23T02:23:23;1.13;;;0.60;;
42600;SDS011;28229;48.856;9.088;2024-02-23T02:25:56;1.77;;;0.80;;
42600;SDS011;28229;48.856;9.088;2024-02-23T02:28:23;2.67;;;0.60;;
42600;SDS011;28229;48.856;9.088;2024-02-23T02:30:51;3.17;;;0.60;;
42600;SDS011;28229;48.856;9.088;2024-02-23T02:33:18;1.10;;;0.50;;
42600;SDS011;28229;48.856;9.088;2024-02-23T02:35:44;0.87;;;0.50;;
42600;SDS011;28229;48.856;9.088;2024-02-23T02:38:11;2.93;;;0.60;;
42600;SDS011;28229;48.856;9.088;2024-02-23T02:40:37;1.10;;;0.50;;
42600;SDS011;28229;48.856;9.088;2024-02-23T02:43:04;3.27;;;0.80;;
42600;SDS011;28229;48.856;9.088;2024-02-23T02:45:31;0.73;;;0.40;;
42600;SDS011;28229;48.856;9.088;2024-02-23T02:47:59;2.10;;;0.70;;
42600;SDS011;28229;48.856;9.088;2024-02-23T02:50:26;1.23;;;0.50;;
42600;SDS011;28229;48.856;9.088;2024-02-23T02:52:52;1.03;;;0.50;;
42600;SDS011;28229;48.856;9.088;2024-02-23T02:55:18;3.90;;;0.63;;
42600;SDS011;28229;48.856;9.088;2024-02-23T02:57:44;1.00;;;0.40;;
42600;SDS011;28229;48.856;9.088;2024-02-23T03:00:11;1.33;;;0.30;;
42600;SDS011;28229;48.856;9.088;2024-02-23T03:02:37;0.53;;;0.43;;
42600;SDS011;28229;48.856;9.088;2024-02-23T03:05:04;0.40;;;0.40;;
42600;SDS011;28229;48.856;9.088;2024-02-23T03:07:31;0.40;;;0.40;;
42600;SDS011;28229;48.856;9.088;2024-02-23T03:09:57;0.60;;;0.40;;
42600;SDS011;28229;48.856;9.088;2024-02-23T03:12:23;1.40;;;0.60;;
42600;SDS011;28229;48.856;9.088;2024-02-23T03:14:49;2.03;;;0.67;;
42600;SDS011;28229;48.856;9.088;2024-02-23T03:17:15;1.67;;;0.57;;
42600;SDS011;28229;48.856;9.088;2024-02-23T03:19:41;1.37;;;0.50;;
42600;SDS011;28229;48.856;9.088;2024-02-23T03:22:08;0.67;;;0.50;;
42600;SDS011;28229;48.856;9.088;2024-02-23T03:24:34;1.70;;;0.40;;
42600;SDS011;28229;48.856;9.088;2024-02-23T03:27:00;0.60;;;0.50;;
42600;SDS011;28229;48.856;9.088;2024-02-23T03:29:29;1.60;;;0.50;;
42600;SDS011;28229;48.856;9.088;2024-02-23T03:31:56;1.17;;;0.30;;
42600;SDS011;28229;48.856;9.088;2024-02-23T03:34:23;1.87;;;0.53;;
42600;SDS011;28229;48.856;9.088;2024-02-23T03:36:49;1.50;;;0.53;;
42600;SDS011;28229;48.856;9.088;2024-02-23T03:39:16;1.80;;;0.47;;
42600;SDS011;28229;48.856;9.088;2024-02-23T03:41:43;1.60;;;0.70;;
42600;SDS011;28229;48.856;9.088;2024-02-23T03:44:09;1.77;;;0.60;;
42600;SDS011;28229;48.856;9.088;2024-02-23T03:46:35;3.47;;;1.47;;
42600;SDS011;28229;48.856;9.088;2024-02-23T03:49:01;1.70;;;1.33;;
42600;SDS011;28229;48.856;9.088;2024-02-23T03:51:27;1.50;;;1.40;;
42600;SDS011;28229;48.856;9.088;2024-02-23T03:53:53;2.47;;;2.27;;
42600;SDS011;28229;48.856;9.088;2024-02-23T03:56:20;1.70;;;1.20;;
42600;SDS011;28229;48.856;9.088;2024-02-23T03:58:46;1.30;;;1.20;;
42600;SDS011;28229;48.856;9.088;2024-02-23T04:01:12;1.97;;;0.80;;
42600;SDS011;28229;48.856;9.088;2024-02-23T04:03:38;2.33;;;1.23;;
42600;SDS011;28229;48.856;9.088;2024-02-23T04:06:04;2.00;;;0.80;;
42600;SDS011;28229;48.856;9.088;2024-02-23T04:08:30;1.20;;;1.10;;
42600;SDS011;28229;48.856;9.088;2024-02-23T04:10:57;2.00;;;0.50;;
42600;SDS011;28229;48.856;9.088;2024-02-23T04:13:23;0.87;;;0.80;;
42600;SDS011;28229;48.856;9.088;2024-02-23T04:15:49;3.70;;;2.07;;
42600;SDS011;28229;48.856;9.088;2024-02-23T04:18:16;1.60;;;1.00;;
42600;SDS011;28229;48.856;9.088;2024-02-23T04:20:42;1.67;;;0.80;;
42600;SDS011;28229;48.856;9.088;2024-02-23T04:23:08;0.83;;;0.77;;
42600;SDS011;28229;48.856;9.088;2024-02-23T04:25:34;1.27;;;0.63;;
42600;SDS011;28229;48.856;9.088;2024-02-23T04:28:01;0.73;;;0.53;;
42600;SDS011;28229;48.856;9.088;2024-02-23T04:30:27;2.20;;;0.93;;
42600;SDS011;28229;48.856;9.088;2024-02-23T04:32:53;2.67;;;0.80;;
42600;SDS011;28229;48.856;9.088;2024-02-23T04:35:19;1.30;;;0.70;;
42600;SDS011;28229;48.856;9.088;2024-02-23T04:37:45;1.53;;;0.60;;
42600;SDS011;28229;48.856;9.088;2024-02-23T04:40:12;1.23;;;0.53;;
42600;SDS011;28229;48.856;9.088;2024-02-23T04:42:38;0.63;;;0.60;;
42600;SDS011;28229;48.856;9.088;2024-02-23T04:45:05;1.40;;;0.60;;
42600;SDS011;28229;48.856;9.088;2024-02-23T04:47:31;2.87;;;0.70;;
42600;SDS011;28229;48.856;9.088;2024-02-23T04:49:58;1.67;;;0.50;;
42600;SDS011;28229;48.856;9.088;2024-02-23T04:52:25;2.07;;;0.90;;
42600;SDS011;28229;48.856;9.088;2024-02-23T04:54:51;1.07;;;0.70;;
42600;SDS011;28229;48.856;9.088;2024-02-23T04:57:17;2.37;;;1.00;;
42600;SDS011;28229;48.856;9.088;2024-02-23T04:59:43;1.90;;;0.70;;
42600;SDS011;28229;48.856;9.088;2024-02-23T05:02:09;0.73;;;0.60;;
42600;SDS011;28229;48.856;9.088;2024-02-23T05:04:35;1.90;;;0.60;;
42600;SDS011;28229;48.856;9.088;2024-02-23T05:07:01;1.47;;;0.73;;
42600;SDS011;28229;48.856;9.088;2024-02-23T05:09:28;0.63;;;0.60;;
42600;SDS011;28229;48.856;9.088;2024-02-23T05:11:54;1.33;;;0.73;;
42600;SDS011;28229;48.856;9.088;2024-02-23T05:14:21;0.70;;;0.40;;
42600;SDS011;28229;48.856;9.088;2024-02-23T05:16:47;2.53;;;0.70;;
42600;SDS011;28229;48.856;9.088;2024-02-23T05:19:13;1.63;;;0.60;;
42600;SDS011;28229;48.856;9.088;2024-02-23T05:21:39;2.47;;;0.70;;
42600;SDS011;28229;48.856;9.088;2024-02-23T05:24:05;0.90;;;0.80;;
42600;SDS011;28229;48.856;9.088;2024-02-23T05:26:31;1.90;;;0.60;;
42600;SDS011;28229;48.856;9.088;2024-02-23T05:28:58;2.73;;;0.90;;
42600;SDS011;28229;48.856;9.088;2024-02-23T05:34:19;1.30;;;0.77;;
42600;SDS011;28229;48.856;9.088;2024-02-23T05:36:46;1.67;;;0.70;;
42600;SDS011;28229;48.856;9.088;2024-02-23T05:39:13;1.73;;;0.70;;
42600;SDS011;28229;48.856;9.088;2024-02-23T05:41:41;1.67;;;0.70;;
42600;SDS011;28229;48.856;9.088;2024-02-23T05:44:07;1.63;;;0.53;;
42600;SDS011;28229;48.856;9.088;2024-02-23T05:46:34;1.23;;;0.53;;
42600;SDS011;28229;48.856;9.088;2024-02-23T05:49:01;0.87;;;0.50;;
42600;SDS011;28229;48.856;9.088;2024-02-23T05:51:30;1.03;;;0.63;;
42600;SDS011;28229;48.856;9.088;2024-02-23T05:53:57;2.10;;;0.77;;
42600;SDS011;28229;48.856;9.088;2024-02-23T05:56:24;0.87;;;0.80;;
42600;SDS011;28229;48.856;9.088;2024-02-23T05:58:51;0.60;;;0.60;;
42600;SDS011;28229;48.856;9.088;2024-02-23T06:01:18;1.63;;;0.63;;
42600;SDS011;28229;48.856;9.088;2024-02-23T06:03:45;1.80;;;0.67;;
42600;SDS011;28229;48.856;9.088;2024-02-23T06:06:11;1.90;;;0.70;;
42600;SDS011;28229;48.856;9.088;2024-02-23T06:08:40;2.03;;;0.80;;
42600;SDS011;28229;48.856;9.088;2024-02-23T06:11:06;1.63;;;0.67;;
42600;SDS011;28229;48.856;9.088;2024-02-23T06:13:35;3.23;;;1.63;;
42600;SDS011;28229;48.856;9.088;2024-02-23T06:16:01;4.63;;;2.47;;
42600;SDS011;28229;48.856;9.088;2024-02-23T06:18:27;44.80;;;20.13;;
42600;SDS011;28229;48.856;9.088;2024-02-23T06:20:53;29.77;;;12.53;;
42600;SDS011;28229;48.856;9.088;2024-02-23T06:23:19;16.23;;;7.67;;
42600;SDS011;28229;48.856;9.088;2024-02-23T06:25:47;5.97;;;2.60;;
42600;SDS011;28229;48.856;9.088;2024-02-23T06:28:13;1.90;;;1.10;;
42600;SDS011;28229;48.856;9.088;2024-02-23T06:30:40;1.77;;;0.93;;
42600;SDS011;28229;48.856;9.088;2024-02-23T06:33:06;1.03;;;0.70;;
42600;SDS011;28229;48.856;9.088;2024-02-23T06:35:32;1.37;;;0.70;;
42600;SDS011;28229;48.856;9.088;2024-02-23T06:37:58;1.97;;;0.73;;
42600;SDS011;28229;48.856;9.088;2024-02-23T06:40:24;2.07;;;0.87;;
42600;SDS011;28229;48.856;9.088;2024-02-23T06:42:50;2.00;;;0.80;;
42600;SDS011;28229;48.856;9.088;2024-02-23T06:45:16;2.80;;;0.90;;
42600;SDS011;28229;48.856;9.088;2024-02-23T06:47:44;2.07;;;0.80;;
42600;SDS011;28229;48.856;9.088;2024-02-23T06:50:10;2.13;;;0.77;;
42600;SDS011;28229;48.856;9.088;2024-02-23T06:52:36;1.87;;;1.00;;
42600;SDS011;28229;48.856;9.088;2024-02-23T06:55:03;2.53;;;1.13;;
42600;SDS011;28229;48.856;9.088;2024-02-23T06:57:30;4.20;;;1.50;;
42600;SDS011;28229;48.856;9.088;2024-02-23T06:59:56;3.80;;;1.90;;
42600;SDS011;28229;48.856;9.088;2024-02-23T07:02:23;4.87;;;2.30;;
42600;SDS011;28229;48.856;9.088;2024-02-23T07:04:49;6.37;;;2.33;;
42600;SDS011;28229;48.856;9.088;2024-02-23T07:07:15;3.37;;;1.30;;
42600;SDS011;28229;48.856;9.088;2024-02-23T07:09:41;1.67;;;1.27;;
42600;SDS011;28229;48.856;9.088;2024-02-23T07:12:07;1.57;;;1.03;;
42600;SDS011;28229;48.856;9.088;2024-02-23T07:14:35;3.47;;;1.57;;
42600;SDS011;28229;48.856;9.088;2024-02-23T07:17:02;2.43;;;1.53;;
42600;SDS011;28229;48.856;9.088;2024-02-23T07:19:28;2.87;;;1.87;;
42600;SDS011;28229;48.856;9.088;2024-02-23T07:21:55;4.40;;;2.00;;
42600;SDS011;28229;48.856;9.088;2024-02-23T07:24:21;3.20;;;1.40;;
42600;SDS011;28229;48.856;9.088;2024-02-23T07:26:47;3.07;;;1.90;;
42600;SDS011;28229;48.856;9.088;2024-02-23T07:29:14;4.77;;;3.90;;
42600;SDS011;28229;48.856;9.088;2024-02-23T07:31:40;5.17;;;3.67;;
42600;SDS011;28229;48.856;9.088;2024-02-23T07:34:06;4.10;;;2.73;;
42600;SDS011;28229;48.856;9.088;2024-02-23T07:36:32;16.43;;;9.97;;
42600;SDS011;28229;48.856;9.088;2024-02-23T07:38:59;7.67;;;4.77;;
42600;SDS011;28229;48.856;9.088;2024-02-23T07:41:25;5.33;;;2.63;;
42600;SDS011;28229;48.856;9.088;2024-02-23T07:43:51;5.03;;;2.93;;
42600;SDS011;28229;48.856;9.088;2024-02-23T07:46:17;4.93;;;2.70;;
42600;SDS011;28229;48.856;9.088;2024-02-23T07:48:44;5.10;;;2.80;;
42600;SDS011;28229;48.856;9.088;2024-02-23T07:51:14;3.60;;;1.73;;
42600;SDS011;28229;48.856;9.088;2024-02-23T07:53:40;2.23;;;1.40;;
42600;SDS011;28229;48.856;9.088;2024-02-23T07:56:09;4.30;;;1.30;;
42600;SDS011;28229;48.856;9.088;2024-02-23T07:58:36;3.40;;;1.60;;
42600;SDS011;28229;48.856;9.088;2024-02-23T08:01:02;2.00;;;1.30;;
42600;SDS011;28229;48.856;9.088;2024-02-23T08:03:28;2.17;;;1.10;;
42600;SDS011;28229;48.856;9.088;2024-02-23T08:05:54;1.53;;;1.20;;
42600;SDS011;28229;48.856;9.088;2024-02-23T08:08:21;2.13;;;1.00;;
42600;SDS011;28229;48.856;9.088;2024-02-23T08:10:49;2.73;;;1.20;;
42600;SDS011;28229;48.856;9.088;2024-02-23T08:13:15;2.47;;;1.40;;
42600;SDS011;28229;48.856;9.088;2024-02-23T08:15:43;2.30;;;1.10;;
42600;SDS011;28229;48.856;9.088;2024-02-23T08:18:10;1.80;;;0.93;;
42600;SDS011;28229;48.856;9.088;2024-02-23T08:20:36;2.20;;;1.20;;
42600;SDS011;28229;48.856;9.088;2024-02-23T08:23:02;2.47;;;1.63;;
42600;SDS011;28229;48.856;9.088;2024-02-23T08:25:28;3.00;;;1.37;;
42600;SDS011;28229;48.856;9.088;2024-02-23T08:27:56;1.53;;;1.10;;
42600;SDS011;28229;48.856;9.088;2024-02-23T08:30:22;3.00;;;1.30;;
42600;SDS011;28229;48.856;9.088;2024-02-23T08:32:48;2.00;;;1.00;;
42600;SDS011;28229;48.856;9.088;2024-02-23T08:35:15;2.30;;;0.80;;
42600;SDS011;28229;48.856;9.088;2024-02-23T08:37:41;2.03;;;1.00;;
42600;SDS011;28229;48.856;9.088;2024-02-23T08:40:08;2.23;;;0.90;;
42600;SDS011;28229;48.856;9.088;2024-02-23T08:42:35;1.43;;;0.87;;
42600;SDS011;28229;48.856;9.088;2024-02-23T08:45:01;2.67;;;1.40;;
42600;SDS011;28229;48.856;9.088;2024-02-23T08:47:27;4.10;;;1.20;;
42600;SDS011;28229;48.856;9.088;2024-02-23T08:49:58;3.00;;;1.20;;
42600;SDS011;28229;48.856;9.088;2024-02-23T08:52:24;4.80;;;1.17;;
42600;SDS011;28229;48.856;9.088;2024-02-23T08:54:51;3.77;;;1.00;;
42600;SDS011;28229;48.856;9.088;2024-02-23T08:57:17;2.73;;;1.00;;
42600;SDS011;28229;48.856;9.088;2024-02-23T08:59:46;2.27;;;1.00;;
42600;SDS011;28229;48.856;9.088;2024-02-23T09:02:12;1.63;;;1.10;;
42600;SDS011;28229;48.856;9.088;2024-02-23T09:04:39;1.83;;;0.93;;
42600;SDS011;28229;48.856;9.088;2024-02-23T09:07:06;2.83;;;1.13;;
42600;SDS011;28229;48.856;9.088;2024-02-23T09:09:32;1.70;;;1.03;;
42600;SDS011;28229;48.856;9.088;2024-02-23T09:11:58;2.87;;;1.00;;
42600;SDS011;28229;48.856;9.088;2024-02-23T09:14:25;1.90;;;1.00;;
42600;SDS011;28229;48.856;9.088;2024-02-23T09:16:51;1.67;;;0.77;;
42600;SDS011;28229;48.856;9.088;2024-02-23T09:19:19;3.87;;;0.90;;
42600;SDS011;28229;48.856;9.088;2024-02-23T09:21:46;3.50;;;0.90;;
42600;SDS011;28229;48.856;9.088;2024-02-23T09:24:13;2.60;;;0.90;;
42600;SDS011;28229;48.856;9.088;2024-02-23T09:26:39;0.97;;;0.80;;
42600;SDS011;28229;48.856;9.088;2024-02-23T09:29:05;3.90;;;0.93;;
42600;SDS011;28229;48.856;9.088;2024-02-23T09:31:32;1.83;;;0.90;;
42600;SDS011;28229;48.856;9.088;2024-02-23T09:33:58;2.40;;;0.80;;
42600;SDS011;28229;48.856;9.088;2024-02-23T09:36:25;1.20;;;0.60;;
42600;SDS011;28229;48.856;9.088;2024-02-23T09:38:51;1.13;;;0.77;;
42600;SDS011;28229;48.856;9.088;2024-02-23T09:41:21;3.97;;;0.73;;
42600;SDS011;28229;48.856;9.088;2024-02-23T10:01:59;1.23;;;0.90;;
42600;SDS011;28229;48.856;9.088;2024-02-23T10:29:44;3.27;;;1.10;;
42600;SDS011;28229;48.856;9.088;2024-02-23T10:32:11;1.60;;;0.80;;
42600;SDS011;28229;48.856;9.088;2024-02-23T10:34:42;2.33;;;0.83;;
42600;SDS011;28229;48.856;9.088;2024-02-23T10:37:09;3.37;;;0.97;;
42600;SDS011;28229;48.856;9.088;2024-02-23T10:39:36;1.77;;;0.83;;
42600;SDS011;28229;48.856;9.088;2024-02-23T10:42:03;3.90;;;0.90;;
42600;SDS011;28229;48.856;9.088;2024-02-23T10:44:33;3.00;;;0.93;;
42600;SDS011;28229;48.856;9.088;2024-02-23T10:47:01;2.83;;;1.00;;
42600;SDS011;28229;48.856;9.088;2024-02-23T10:49:31;2.83;;;0.80;;
42600;SDS011;28229;48.856;9.088;2024-02-23T10:51:59;2.97;;;0.90;;
42600;SDS011;28229;48.856;9.088;2024-02-23T11:32:13;3.77;;;1.70;;
42600;SDS011;28229;48.856;9.088;2024-02-23T14:05:28;2.47;;;1.00;;
42600;SDS011;28229;48.856;9.088;2024-02-23T14:07:59;3.03;;;1.20;;
42600;SDS011;28229;48.856;9.088;2024-02-23T14:10:25;4.33;;;1.20;;
42600;SDS011;28229;48.856;9.088;2024-02-23T14:12:51;4.53;;;1.27;;
42600;SDS011;28229;48.856;9.088;2024-02-23T14:15:17;4.53;;;1.27;;
42600;SDS011;28229;48.856;9.088;2024-02-23T14:17:44;3.97;;;1.77;;
42600;SDS011;28229;48.856;9.088;2024-02-23T14:20:10;5.17;;;1.50;;
42600;SDS011;28229;48.856;9.088;2024-02-23T14:22:36;1.90;;;1.10;;
42600;SDS011;28229;48.856;9.088;2024-02-23T14:25:02;3.13;;;1.33;;
42600;SDS011;28229;48.856;9.088;2024-02-23T14:27:28;3.47;;;1.77;;
42600;SDS011;28229;48.856;9.088;2024-02-23T14:29:54;4.00;;;1.33;;
42600;SDS011;28229;48.856;9.088;2024-02-23T14:32:21;2.47;;;1.10;;
42600;SDS011;28229;48.856;9.088;2024-02-23T14:34:47;2.70;;;1.20;;
42600;SDS011;28229;48.856;9.088;2024-02-23T14:37:14;2.33;;;1.03;;
42600;SDS011;28229;48.856;9.088;2024-02-23T14:39:40;3.30;;;1.23;;
42600;SDS011;28229;48.856;9.088;2024-02-23T14:42:06;3.40;;;1.20;;
42600;SDS011;28229;48.856;9.088;2024-02-23T14:44:35;2.40;;;1.10;;
42600;SDS011;28229;48.856;9.088;2024-02-23T14:47:02;4.23;;;1.30;;
42600;SDS011;28229;48.856;9.088;2024-02-23T14:49:29;4.07;;;1.23;;
42600;SDS011;28229;48.856;9.088;2024-02-23T14:51:55;3.73;;;1.10;;
42600;SDS011;28229;48.856;9.088;2024-02-23T14:54:21;3.50;;;1.40;;
42600;SDS011;28229;48.856;9.088;2024-02-23T14:56:48;6.37;;;1.30;;
42600;SDS011;28229;48.856;9.088;2024-02-23T14:59:14;3.93;;;1.33;;
42600;SDS011;28229;48.856;9.088;2024-02-23T15:01:40;5.27;;;1.43;;
42600;SDS011;28229;48.856;9.088;2024-02-23T15:04:09;2.00;;;1.20;;
42600;SDS011;28229;48.856;9.088;2024-02-23T15:06:35;2.87;;;1.47;;
42600;SDS011;28229;48.856;9.088;2024-02-23T15:09:05;3.47;;;1.30;;
42600;SDS011;28229;48.856;9.088;2024-02-23T15:11:31;5.93;;;1.50;;
42600;SDS011;28229;48.856;9.088;2024-02-23T15:13:58;3.53;;;1.30;;
42600;SDS011;28229;48.856;9.088;2024-02-23T15:16:27;3.30;;;1.40;;
42600;SDS011;28229;48.856;9.088;2024-02-23T15:18:54;5.60;;;1.40;;
42600;SDS011;28229;48.856;9.088;2024-02-23T15:21:24;3.23;;;1.30;;
42600;SDS011;28229;48.856;9.088;2024-02-23T15:23:50;2.73;;;1.10;;
42600;SDS011;28229;48.856;9.088;2024-02-23T15:26:16;4.23;;;1.10;;
42600;SDS011;28229;48.856;9.088;2024-02-23T15:28:42;3.27;;;1.10;;
42600;SDS011;28229;48.856;9.088;2024-02-23T15:31:11;3.33;;;1.50;;
42600;SDS011;28229;48.856;9.088;2024-02-23T15:33:37;4.80;;;1.53;;
42600;SDS011;28229;48.856;9.088;2024-02-23T15:36:08;6.90;;;1.67;;
42600;SDS011;28229;48.856;9.088;2024-02-23T15:38:34;7.13;;;2.40;;
42600;SDS011;28229;48.856;9.088;2024-02-23T15:41:01;3.00;;;1.73;;
42600;SDS011;28229;48.856;9.088;2024-02-23T15:43:28;4.77;;;1.80;;
42600;SDS011;28229;48.856;9.088;2024-02-23T15:45:54;4.73;;;1.47;;
42600;SDS011;28229;48.856;9.088;2024-02-23T15:48:21;4.50;;;1.87;;
42600;SDS011;28229;48.856;9.088;2024-02-23T15:50:48;3.77;;;1.40;;
42600;SDS011;28229;48.856;9.088;2024-02-23T15:53:15;3.37;;;1.10;;
42600;SDS011;28229;48.856;9.088;2024-02-23T15:55:41;3.60;;;1.10;;
42600;SDS011;28229;48.856;9.088;2024-02-23T15:58:08;2.80;;;1.20;;
42600;SDS011;28229;48.856;9.088;2024-02-23T16:00:34;3.50;;;1.30;;
42600;SDS011;28229;48.856;9.088;2024-02-23T16:03:00;3.73;;;1.27;;
42600;SDS011;28229;48.856;9.088;2024-02-23T16:05:26;2.33;;;1.37;;
42600;SDS011;28229;48.856;9.088;2024-02-23T16:07:52;4.40;;;1.20;;
42600;SDS011;28229;48.856;9.088;2024-02-23T16:10:19;3.93;;;1.23;;
42600;SDS011;28229;48.856;9.088;2024-02-23T16:12:49;5.03;;;1.57;;
42600;SDS011;28229;48.856;9.088;2024-02-23T16:15:16;3.30;;;1.33;;
42600;SDS011;28229;48.856;9.088;2024-02-23T16:17:42;4.10;;;1.40;;
42600;SDS011;28229;48.856;9.088;2024-02-23T16:20:08;3.93;;;1.40;;
42600;SDS011;28229;48.856;9.088;2024-02-23T16:22:35;4.03;;;1.40;;
42600;SDS011;28229;48.856;9.088;2024-02-23T16:25:01;2.07;;;1.10;;
42600;SDS011;28229;48.856;9.088;2024-02-23T16:27:28;5.20;;;1.77;;
42600;SDS011;28229;48.856;9.088;2024-02-23T16:29:54;3.17;;;1.23;;
42600;SDS011;28229;48.856;9.088;2024-02-23T16:32:22;1.90;;;1.27;;
42600;SDS011;28229;48.856;9.088;2024-02-23T16:34:48;2.73;;;1.57;;
42600;SDS011;28229;48.856;9.088;2024-02-23T16:37:14;3.93;;;1.67;;
42600;SDS011;28229;48.856;9.088;2024-02-23T16:39:40;3.60;;;1.80;;
42600;SDS011;28229;48.856;9.088;2024-02-23T16:42:06;5.07;;;1.60;;
42600;SDS011;28229;48.856;9.088;2024-02-23T16:44:32;4.00;;;1.50;;
42600;SDS011;28229;48.856;9.088;2024-02-23T16:46:59;8.27;;;3.03;;
42600;SDS011;28229;48.856;9.088;2024-02-23T16:49:25;24.00;;;11.17;;
42600;SDS011;28229;48.856;9.088;2024-02-23T16:51:51;8.60;;;3.47;;
42600;SDS011;28229;48.856;9.088;2024-02-23T16:54:17;6.60;;;4.43;;
42600;SDS011;28229;48.856;9.088;2024-02-23T16:56:43;4.67;;;3.07;;
42600;SDS011;28229;48.856;9.088;2024-02-23T16:59:09;1.77;;;1.67;;
42600;SDS011;28229;48.856;9.088;2024-02-23T17:01:35;4.23;;;1.70;;
42600;SDS011;28229;48.856;9.088;2024-02-23T17:04:02;3.90;;;1.67;;
42600;SDS011;28229;48.856;9.088;2024-02-23T17:06:28;3.97;;;1.73;;
42600;SDS011;28229;48.856;9.088;2024-02-23T17:08:54;7.17;;;1.80;;
42600;SDS011;28229;48.856;9.088;2024-02-23T17:11:21;3.60;;;1.80;;
42600;SDS011;28229;48.856;9.088;2024-02-23T17:13:47;3.30;;;1.60;;
42600;SDS011;28229;48.856;9.088;2024-02-23T17:16:14;5.23;;;2.07;;
42600;SDS011;28229;48.856;9.088;2024-02-23T17:18:40;3.20;;;1.83;;
42600;SDS011;28229;48.856;9.088;2024-02-23T17:21:07;6.50;;;2.23;;
42600;SDS011;28229;48.856;9.088;2024-02-23T17:23:33;6.43;;;1.80;;
42600;SDS011;28229;48.856;9.088;2024-02-23T17:25:59;6.83;;;2.03;;
42600;SDS011;28229;48.856;9.088;2024-02-23T17:28:25;3.13;;;1.90;;
42600;SDS011;28229;48.856;9.088;2024-02-23T17:30:51;5.17;;;1.97;;
42600;SDS011;28229;48.856;9.088;2024-02-23T17:33:17;7.70;;;2.10;;
42600;SDS011;28229;48.856;9.088;2024-02-23T17:35:46;3.07;;;1.90;;
42600;SDS011;28229;48.856;9.088;2024-02-23T17:38:12;4.20;;;1.93;;
42600;SDS011;28229;48.856;9.088;2024-02-23T17:40:39;4.77;;;1.90;;
42600;SDS011;28229;48.856;9.088;2024-02-23T17:43:05;6.73;;;2.17;;
42600;SDS011;28229;48.856;9.088;2024-02-23T17:45:31;4.13;;;2.10;;
42600;SDS011;28229;48.856;9.088;2024-02-23T17:47:57;2.90;;;1.90;;
42600;SDS011;28229;48.856;9.088;2024-02-23T17:50:23;4.83;;;1.70;;
42600;SDS011;28229;48.856;9.088;2024-02-23T17:52:50;6.93;;;1.77;;
42600;SDS011;28229;48.856;9.088;2024-02-23T17:55:16;6.20;;;2.30;;
42600;SDS011;28229;48.856;9.088;2024-02-23T17:57:42;6.47;;;2.47;;
42600;SDS011;28229;48.856;9.088;2024-02-23T18:00:10;4.90;;;2.70;;
42600;SDS011;28229;48.856;9.088;2024-02-23T18:02:37;5.40;;;3.10;;
42600;SDS011;28229;48.856;9.088;2024-02-23T18:05:03;4.53;;;2.57;;
42600;SDS011;28229;48.856;9.088;2024-02-23T18:07:29;4.73;;;2.53;;
42600;SDS011;28229;48.856;9.088;2024-02-23T18:09:55;3.63;;;2.23;;
42600;SDS011;28229;48.856;9.088;2024-02-23T18:12:22;3.30;;;2.10;;
42600;SDS011;28229;48.856;9.088;2024-02-23T18:14:48;4.40;;;1.87;;
42600;SDS011;28229;48.856;9.088;2024-02-23T18:17:14;4.33;;;1.83;;
42600;SDS011;28229;48.856;9.088;2024-02-23T18:19:40;6.67;;;2.10;;
42600;SDS011;28229;48.856;9.088;2024-02-23T18:22:08;6.03;;;2.07;;
42600;SDS011;28229;48.856;9.088;2024-02-23T18:24:36;6.60;;;2.87;;
42600;SDS011;28229;48.856;9.088;2024-02-23T18:27:02;8.83;;;3.93;;
42600;SDS011;28229;48.856;9.088;2024-02-23T18:29:28;7.90;;;4.27;;
42600;SDS011;28229;48.856;9.088;2024-02-23T18:31:54;6.73;;;3.70;;
42600;SDS011;28229;48.856;9.088;2024-02-23T18:34:20;5.37;;;3.30;;
42600;SDS011;28229;48.856;9.088;2024-02-23T18:36:46;7.60;;;3.50;;
42600;SDS011;28229;48.856;9.088;2024-02-23T18:39:12;4.73;;;3.10;;